createdAt,value
2023-01-23T00:00:23.280Z,62.80
2023-01-23T00:03:12.128Z,51.20
2023-01-23T00:05:41.021Z,53.40
2023-01-23T00:08:09.903Z,50.90
2023-01-23T00:10:39.462Z,44.70
2023-01-23T00:13:11.421Z,50.00
2023-01-23T00:15:40.969Z,49.90
2023-01-23T00:18:10.241Z,50.30
2023-01-23T00:20:39.620Z,48.90
2023-01-23T00:23:10.415Z,53.30
2023-01-23T00:25:39.663Z,46.20
2023-01-23T00:28:08.932Z,51.00
2023-01-23T00:30:38.009Z,49.90
2023-01-23T00:33:06.875Z,58.30
2023-01-23T00:35:36.067Z,53.30
2023-01-23T00:38:04.973Z,50.60
2023-01-23T00:40:35.304Z,53.20
2023-01-23T00:43:04.231Z,52.00
2023-01-23T00:45:33.169Z,63.80
2023-01-23T00:48:02.089Z,58.40
2023-01-23T00:50:30.921Z,49.20
2023-01-23T00:52:59.768Z,47.40
2023-01-23T00:55:28.624Z,54.30
2023-01-23T00:57:57.434Z,57.30
2023-01-23T01:00:28.928Z,52.80
2023-01-23T01:02:58.386Z,61.50
2023-01-23T01:05:27.604Z,55.90
2023-01-23T01:07:56.845Z,52.90
2023-01-23T01:10:29.342Z,49.50
2023-01-23T01:13:03.353Z,54.60
2023-01-23T01:15:32.748Z,53.10
2023-01-23T01:18:05.107Z,52.80
2023-01-23T01:20:34.081Z,58.50
2023-01-23T01:23:03.666Z,58.50
2023-01-23T01:25:32.688Z,62.40
2023-01-23T01:28:01.593Z,52.90
2023-01-23T01:30:30.481Z,63.60
2023-01-23T01:32:59.423Z,70.40
2023-01-23T01:35:28.284Z,49.80
2023-01-23T01:37:57.598Z,56.10
2023-01-23T01:40:32.366Z,54.70
2023-01-23T01:43:03.597Z,68.60
2023-01-23T01:46:04.030Z,53.10
2023-01-23T01:48:36.793Z,52.20
2023-01-23T01:51:11.728Z,46.70
2023-01-23T01:53:41.371Z,52.10
2023-01-23T01:56:14.071Z,59.30
2023-01-23T01:58:51.490Z,47.40
2023-01-23T02:01:20.876Z,53.90
2023-01-23T02:03:51.484Z,51.80
2023-01-23T02:06:21.334Z,52.90
2023-01-23T02:08:58.875Z,62.60
2023-01-23T02:11:28.828Z,60.90
2023-01-23T02:13:58.222Z,59.80
2023-01-23T02:16:30.705Z,55.40
2023-01-23T02:19:03.973Z,47.30
2023-01-23T02:21:34.771Z,52.50
2023-01-23T02:24:16.919Z,53.00
2023-01-23T02:26:48.558Z,59.50
2023-01-23T02:29:18.648Z,54.80
2023-01-23T02:31:52.779Z,62.70
2023-01-23T02:34:23.348Z,62.70
2023-01-23T02:36:56.327Z,73.00
2023-01-23T02:39:27.058Z,56.00
2023-01-23T02:41:59.800Z,52.60
2023-01-23T02:44:42.275Z,50.20
2023-01-23T02:47:13.927Z,53.20
2023-01-23T02:49:46.055Z,54.40
2023-01-23T02:52:16.202Z,56.20
2023-01-23T02:54:46.356Z,58.00
2023-01-23T02:57:16.952Z,67.80
2023-01-23T03:00:04.417Z,66.00
2023-01-23T03:02:39.422Z,61.10
2023-01-23T03:05:12.392Z,80.00
2023-01-23T03:07:42.279Z,73.20
2023-01-23T03:10:12.647Z,78.20
2023-01-23T03:12:44.862Z,77.40
2023-01-23T03:15:14.105Z,74.90
2023-01-23T03:17:43.058Z,82.20
2023-01-23T03:20:12.889Z,82.10
2023-01-23T03:22:41.964Z,110.90
2023-01-23T03:25:11.156Z,67.70
2023-01-23T03:27:42.156Z,72.50
2023-01-23T03:30:16.462Z,68.70
2023-01-23T03:32:46.984Z,77.30
2023-01-23T03:37:46.170Z,75.00
2023-01-23T03:40:37.247Z,70.50
2023-01-23T03:43:06.773Z,80.30
2023-01-23T03:45:37.159Z,83.90
2023-01-23T03:48:11.535Z,70.60
2023-01-23T03:50:40.877Z,85.50
2023-01-23T03:53:09.848Z,72.40
2023-01-23T03:55:39.969Z,74.00
2023-01-23T04:08:58.367Z,70.70
2023-01-23T04:11:54.161Z,72.10
2023-01-23T04:14:30.857Z,75.80
2023-01-23T04:17:04.298Z,74.00
2023-01-23T04:19:37.782Z,65.30
2023-01-23T04:22:13.651Z,57.50
2023-01-23T04:24:56.348Z,54.50
2023-01-23T04:27:32.497Z,53.60
2023-01-23T04:30:13.240Z,47.30
2023-01-23T04:32:50.207Z,54.20
2023-01-23T04:35:28.510Z,53.80
2023-01-23T04:38:05.287Z,58.50
2023-01-23T04:40:43.296Z,43.90
2023-01-23T04:43:20.466Z,67.40
2023-01-23T04:46:03.583Z,50.80
2023-01-23T04:48:58.093Z,45.20
2023-01-23T04:51:31.298Z,44.00
2023-01-23T04:54:06.930Z,64.30
2023-01-23T04:56:40.282Z,47.80
2023-01-23T04:59:18.252Z,39.50
2023-01-23T05:01:53.942Z,41.30
2023-01-23T05:04:27.096Z,50.40
2023-01-23T05:07:03.259Z,48.60
2023-01-23T05:09:40.241Z,82.80
2023-01-23T05:12:19.579Z,56.40
2023-01-23T05:14:52.684Z,61.30
2023-01-23T05:17:28.251Z,54.70
2023-01-23T05:20:01.772Z,65.90
2023-01-23T05:22:52.496Z,52.60
2023-01-23T05:25:29.189Z,43.50
2023-01-23T05:28:03.353Z,57.50
2023-01-23T05:30:36.787Z,41.50
2023-01-23T05:33:41.011Z,47.50
2023-01-23T05:36:13.684Z,56.70
2023-01-23T05:38:49.250Z,50.40
2023-01-23T05:41:29.796Z,52.10
2023-01-23T05:44:22.491Z,47.70
2023-01-23T05:47:02.255Z,42.80
2023-01-23T05:49:38.684Z,50.10
2023-01-23T05:52:12.260Z,49.30
2023-01-23T05:54:45.065Z,52.70
2023-01-23T05:57:19.170Z,47.00
2023-01-23T05:59:57.784Z,63.80
2023-01-23T06:02:50.992Z,55.10
2023-01-23T06:05:34.299Z,55.40
2023-01-23T06:08:18.040Z,56.60
2023-01-23T06:10:53.076Z,55.30
2023-01-23T06:13:26.501Z,46.90
2023-01-23T06:15:59.472Z,46.30
2023-01-23T06:18:35.307Z,46.70
2023-01-23T06:21:08.849Z,48.70
2023-01-23T06:23:44.301Z,56.30
2023-01-23T06:26:17.125Z,51.00
2023-01-23T06:28:55.077Z,64.50
2023-01-23T06:31:27.787Z,72.30
2023-01-23T06:34:03.988Z,55.10
2023-01-23T06:36:46.263Z,47.80
2023-01-23T06:39:21.041Z,51.80
2023-01-23T06:41:56.041Z,51.50
2023-01-23T06:44:29.248Z,52.20
2023-01-23T06:47:02.189Z,48.00
2023-01-23T06:49:36.854Z,52.00
2023-01-23T06:52:09.786Z,53.60
2023-01-23T06:54:43.075Z,63.60
2023-01-23T06:57:16.843Z,59.40
2023-01-23T06:59:50.270Z,52.20
2023-01-23T07:02:24.506Z,58.20
2023-01-23T07:04:57.572Z,51.20
2023-01-23T07:07:31.566Z,53.50
2023-01-23T07:10:03.922Z,49.10
2023-01-23T07:12:39.409Z,50.70
2023-01-23T07:15:14.246Z,63.50
2023-01-23T07:17:46.549Z,58.70
2023-01-23T07:20:19.872Z,50.40
2023-01-23T07:22:55.603Z,52.60
2023-01-23T07:25:29.112Z,54.80
2023-01-23T07:28:02.004Z,57.40
2023-01-23T07:30:34.747Z,48.20
2023-01-23T07:33:07.675Z,54.60
2023-01-23T07:35:41.689Z,56.70
2023-01-23T07:38:18.349Z,61.80
2023-01-23T07:40:50.894Z,65.20
2023-01-23T07:43:26.424Z,81.10
2023-01-23T07:46:01.466Z,79.90
2023-01-23T07:48:34.114Z,65.20
2023-01-23T07:51:07.504Z,53.30
2023-01-23T07:53:40.007Z,51.60
2023-01-23T07:56:13.589Z,55.50
2023-01-23T07:58:52.279Z,50.40
2023-01-23T08:01:24.559Z,53.10
2023-01-23T08:04:02.904Z,49.00
2023-01-23T08:06:35.277Z,53.10
2023-01-23T08:09:08.293Z,60.50
2023-01-23T08:11:41.113Z,56.40
2023-01-23T08:14:13.979Z,56.60
2023-01-23T08:16:49.508Z,45.30
2023-01-23T08:19:22.404Z,59.10
2023-01-23T08:21:54.931Z,62.30
2023-01-23T08:24:29.604Z,55.40
2023-01-23T08:27:02.109Z,73.70
2023-01-23T08:29:35.816Z,78.90
2023-01-23T08:32:08.570Z,77.10
2023-01-23T08:34:41.097Z,85.80
2023-01-23T08:37:13.391Z,85.10
2023-01-23T08:39:46.022Z,85.30
2023-01-23T08:42:18.396Z,98.70
2023-01-23T08:44:50.784Z,90.90
2023-01-23T08:47:23.883Z,77.40
2023-01-23T08:49:56.338Z,113.70
2023-01-23T08:52:31.259Z,97.60
2023-01-23T08:55:03.792Z,88.10
2023-01-23T08:57:36.191Z,77.90
2023-01-23T09:00:15.752Z,78.60
2023-01-23T09:02:48.104Z,82.90
2023-01-23T09:05:21.433Z,77.20
2023-01-23T09:07:56.446Z,65.00
2023-01-23T09:10:29.213Z,70.20
2023-01-23T09:13:03.572Z,74.70
2023-01-23T09:15:35.932Z,73.00
2023-01-23T09:18:08.975Z,88.70
2023-01-23T09:20:42.066Z,81.60
2023-01-23T09:23:14.990Z,100.20
2023-01-23T09:25:47.507Z,88.30
2023-01-23T09:28:20.252Z,82.90
2023-01-23T09:30:52.847Z,79.90
2023-01-23T09:33:27.403Z,65.80
2023-01-23T09:36:00.134Z,59.20
2023-01-23T09:38:34.235Z,64.40
2023-01-23T09:41:17.561Z,53.10
2023-01-23T09:43:58.689Z,43.60
2023-01-23T09:46:38.209Z,44.50
2023-01-23T09:49:18.485Z,43.70
2023-01-23T09:51:57.785Z,46.00
2023-01-23T09:54:43.381Z,40.20
2023-01-23T09:57:20.745Z,49.90
2023-01-23T10:00:01.109Z,49.70
2023-01-23T10:02:36.813Z,56.50
2023-01-23T10:05:16.981Z,59.10
2023-01-23T10:08:00.117Z,62.90
2023-01-23T10:10:52.314Z,66.60
2023-01-23T10:13:50.376Z,57.90
2023-01-23T10:16:48.799Z,59.50
2023-01-23T10:19:43.066Z,58.20
2023-01-23T10:22:30.729Z,61.80
2023-01-23T10:25:11.824Z,89.60
2023-01-23T10:27:49.654Z,65.30
2023-01-23T10:30:28.004Z,58.00
2023-01-23T10:33:14.293Z,58.30
2023-01-23T10:35:53.540Z,57.10
2023-01-23T10:38:32.346Z,54.50
2023-01-23T10:41:14.886Z,55.10
2023-01-23T10:43:51.199Z,50.70
2023-01-23T10:46:29.447Z,64.10
2023-01-23T10:49:03.666Z,55.60
2023-01-23T10:51:48.203Z,63.00
2023-01-23T10:54:33.119Z,52.60
2023-01-23T10:57:26.646Z,59.40
2023-01-23T11:00:04.556Z,59.90
2023-01-23T11:02:40.397Z,81.40
2023-01-23T11:05:51.996Z,48.20
2023-01-23T11:08:30.354Z,58.50
2023-01-23T11:11:24.236Z,60.30
2023-01-23T11:14:11.368Z,62.10
2023-01-23T11:16:44.006Z,70.90
2023-01-23T11:19:22.872Z,76.00
2023-01-23T11:21:57.932Z,77.40
2023-01-23T11:24:41.583Z,79.70
2023-01-23T11:27:24.419Z,84.70
2023-01-23T11:30:15.560Z,84.60
2023-01-23T11:32:55.474Z,79.90
2023-01-23T11:35:39.758Z,74.30
2023-01-23T11:38:15.541Z,69.80
2023-01-23T11:40:54.271Z,64.20
2023-01-23T11:43:27.723Z,77.70
2023-01-23T11:46:34.980Z,63.60
2023-01-23T11:49:27.189Z,55.30
2023-01-23T11:52:15.055Z,69.70
2023-01-23T11:55:05.048Z,64.80
2023-01-23T11:57:48.138Z,59.50
2023-01-23T12:00:34.277Z,62.20
2023-01-23T12:03:35.021Z,62.90
2023-01-23T12:06:22.565Z,57.20
2023-01-23T12:09:03.636Z,60.60
2023-01-23T12:11:46.303Z,56.60
2023-01-23T12:14:28.391Z,60.20
2023-01-23T12:17:16.915Z,61.60
2023-01-23T12:20:11.813Z,63.30
2023-01-23T12:22:55.594Z,75.50
2023-01-23T12:25:35.324Z,91.90
2023-01-23T12:28:25.463Z,75.20
2023-01-23T12:31:15.898Z,53.50
2023-01-23T12:34:08.640Z,57.40
2023-01-23T12:37:11.790Z,45.70
2023-01-23T12:40:02.129Z,47.60
2023-01-23T12:42:44.308Z,49.00
2023-01-23T12:45:24.454Z,49.40
2023-01-23T12:48:04.962Z,57.00
2023-01-23T12:50:46.743Z,59.10
2023-01-23T12:53:22.300Z,56.30
2023-01-23T12:56:03.088Z,59.00
2023-01-23T12:58:41.303Z,56.70
2023-01-23T13:01:33.985Z,55.60
2023-01-23T13:04:23.671Z,68.10
2023-01-23T13:07:17.447Z,194.50
2023-01-23T13:10:12.505Z,84.40
2023-01-23T13:12:45.990Z,85.00
2023-01-23T13:15:40.379Z,84.90
2023-01-23T13:18:30.059Z,97.80
2023-01-23T13:21:22.549Z,63.70
2023-01-23T13:24:35.040Z,80.20
2023-01-23T13:27:50.514Z,85.60
2023-01-23T13:30:44.481Z,77.10
2023-01-23T13:33:58.787Z,100.70
2023-01-23T13:36:38.811Z,83.90
2023-01-23T13:39:30.581Z,84.00
2023-01-23T13:42:36.930Z,89.00
2023-01-23T13:45:32.659Z,97.00
2023-01-23T14:21:52.356Z,79.20
2023-01-23T14:24:29.285Z,100.80
2023-01-23T14:27:11.591Z,108.70
2023-01-23T14:29:46.149Z,104.00
2023-01-23T14:32:27.041Z,90.80
2023-01-23T14:34:59.465Z,104.40
2023-01-23T14:37:35.992Z,97.10
2023-01-23T14:40:25.894Z,103.10
2023-01-23T14:43:08.044Z,123.40
2023-01-23T14:45:40.931Z,104.80
2023-01-23T14:48:21.686Z,119.80
2023-01-23T14:51:06.222Z,125.70
2023-01-23T14:53:42.827Z,141.90
2023-01-23T14:56:15.469Z,131.40
2023-01-23T14:58:49.526Z,161.10
2023-01-23T15:01:23.049Z,124.30
2023-01-23T15:04:05.593Z,117.70
2023-01-23T15:06:38.844Z,137.10
2023-01-23T15:09:19.033Z,111.00
2023-01-23T15:11:51.509Z,85.40
2023-01-23T15:14:29.170Z,104.50
2023-01-23T15:17:07.322Z,93.70
2023-01-23T15:19:42.175Z,83.90
2023-01-23T15:22:22.458Z,122.00
2023-01-23T15:24:55.892Z,96.60
2023-01-23T15:27:33.140Z,86.70
2023-01-23T15:30:38.298Z,90.20
2023-01-23T15:33:27.552Z,93.10
2023-01-23T15:36:07.502Z,88.80
2023-01-23T15:38:39.827Z,91.00
2023-01-23T15:41:12.883Z,99.00
2023-01-23T15:43:45.155Z,99.20
2023-01-23T15:46:17.583Z,110.60
2023-01-23T15:48:50.019Z,100.20
2023-01-23T15:51:22.676Z,87.10
2023-01-23T15:53:56.377Z,96.70
2023-01-23T15:56:31.901Z,101.50
2023-01-23T15:59:10.386Z,89.90
2023-01-23T16:01:43.769Z,83.40
2023-01-23T16:04:17.535Z,84.00
2023-01-23T16:06:50.210Z,85.20
2023-01-23T16:09:30.885Z,81.20
2023-01-23T16:12:04.193Z,72.60
2023-01-23T16:14:36.593Z,70.40
2023-01-23T16:17:16.704Z,82.90
2023-01-23T16:19:50.796Z,84.80
2023-01-23T16:22:29.337Z,86.50
2023-01-23T16:25:02.026Z,167.40
2023-01-23T16:27:34.444Z,128.50
2023-01-23T16:30:08.095Z,135.60
2023-01-23T16:32:40.435Z,110.10
2023-01-23T16:35:14.635Z,83.80
2023-01-23T16:37:49.910Z,61.40
2023-01-23T16:40:25.107Z,58.00
2023-01-23T16:43:02.806Z,67.90
2023-01-23T16:45:35.404Z,61.50
2023-01-23T16:48:12.928Z,53.30
2023-01-23T16:50:52.518Z,50.40
2023-01-23T16:53:27.523Z,54.30
2023-01-23T16:56:01.786Z,40.70
2023-01-23T16:58:38.408Z,70.50
2023-01-23T17:01:20.563Z,50.40
2023-01-23T17:03:59.185Z,39.70
2023-01-23T17:06:32.130Z,68.50
2023-01-23T17:09:04.716Z,69.20
2023-01-23T17:11:41.065Z,56.80
2023-01-23T17:14:17.617Z,62.20
2023-01-23T17:16:51.235Z,134.40
2023-01-23T17:19:30.897Z,55.90
2023-01-23T17:22:06.301Z,58.80
2023-01-23T17:24:39.147Z,49.50
2023-01-23T17:27:11.429Z,59.90
2023-01-23T17:29:43.770Z,49.90
2023-01-23T17:32:27.944Z,49.50
2023-01-23T17:35:03.295Z,48.20
2023-01-23T17:37:37.317Z,51.10
2023-01-23T17:40:14.615Z,44.10
2023-01-23T17:42:47.057Z,112.50
2023-01-23T17:45:21.825Z,168.90
2023-01-23T17:47:56.125Z,60.70
2023-01-23T17:50:29.206Z,55.20
2023-01-23T17:53:01.402Z,63.40
2023-01-23T17:55:33.706Z,52.70
2023-01-23T17:58:05.945Z,47.30
2023-01-23T18:00:39.245Z,43.80
2023-01-23T18:03:16.195Z,40.50
2023-01-23T18:05:48.573Z,50.70
2023-01-23T18:08:22.801Z,66.80
2023-01-23T18:10:57.161Z,46.80
2023-01-23T18:13:38.307Z,67.90
2023-01-23T18:16:15.445Z,68.80
2023-01-23T18:18:53.082Z,48.90
2023-01-23T18:21:26.252Z,40.10
2023-01-23T18:23:59.421Z,35.20
2023-01-23T18:26:44.717Z,56.70
2023-01-23T18:29:28.560Z,47.60
2023-01-23T18:32:36.671Z,70.50
2023-01-23T18:35:25.528Z,42.80
2023-01-23T18:38:09.056Z,40.20
2023-01-23T18:40:49.686Z,40.10
2023-01-23T18:43:35.228Z,39.20
2023-01-23T18:46:13.138Z,37.40
2023-01-23T18:48:47.125Z,39.40
2023-01-23T18:51:38.527Z,42.90
2023-01-23T18:54:26.994Z,36.60
2023-01-23T18:57:13.714Z,44.20
2023-01-23T18:59:55.129Z,40.60
2023-01-23T19:02:36.031Z,37.90
2023-01-23T19:05:27.486Z,33.40
2023-01-23T19:08:01.033Z,39.60
2023-01-23T19:10:48.463Z,37.80
2023-01-23T19:13:24.966Z,42.20
2023-01-23T19:16:06.180Z,42.00
2023-01-23T19:18:50.150Z,47.30
2023-01-23T19:21:26.826Z,52.60
2023-01-23T19:24:03.068Z,37.00
2023-01-23T19:26:38.413Z,40.60
2023-01-23T19:29:22.860Z,38.30
2023-01-23T19:32:05.233Z,31.20
2023-01-23T19:34:38.346Z,31.50
2023-01-23T19:37:10.734Z,32.80
2023-01-23T19:39:43.685Z,31.80
2023-01-23T19:42:17.020Z,37.20
2023-01-23T19:44:49.410Z,32.50
2023-01-23T19:47:21.735Z,37.60
2023-01-23T19:49:54.220Z,34.00
2023-01-23T19:52:26.787Z,33.40
2023-01-23T19:55:01.849Z,34.20
2023-01-23T19:57:36.355Z,38.10
2023-01-23T20:00:14.460Z,39.60
2023-01-23T20:02:46.895Z,36.40
2023-01-23T20:05:19.538Z,38.80
2023-01-23T20:07:55.018Z,42.80
2023-01-23T20:10:32.217Z,38.50
2023-01-23T20:13:05.306Z,37.40
2023-01-23T20:15:37.738Z,38.40
2023-01-23T20:18:11.966Z,44.30
2023-01-23T20:20:44.737Z,40.10
2023-01-23T20:23:17.307Z,55.80
2023-01-23T20:25:59.490Z,246.30
2023-01-23T20:28:32.569Z,100.20
2023-01-23T20:31:12.336Z,87.60
2023-01-23T20:33:45.297Z,58.30
2023-01-23T20:36:17.951Z,47.70
2023-01-23T20:38:50.998Z,44.70
2023-01-23T20:41:23.794Z,40.40
2023-01-23T20:43:57.411Z,44.10
2023-01-23T20:46:31.274Z,44.40
2023-01-23T20:49:03.669Z,118.40
2023-01-23T20:51:36.346Z,61.00
2023-01-23T20:54:09.118Z,38.50
2023-01-23T20:56:41.509Z,49.70
2023-01-23T20:59:23.543Z,49.50
2023-01-23T21:02:13.374Z,44.20
2023-01-23T21:04:46.629Z,45.70
2023-01-23T21:07:21.409Z,44.20
2023-01-23T21:09:55.937Z,52.50
2023-01-23T21:12:28.378Z,50.60
2023-01-23T21:15:03.423Z,49.30
2023-01-23T21:17:36.008Z,40.60
2023-01-23T21:20:12.860Z,47.60
2023-01-23T21:22:51.496Z,46.50
2023-01-23T21:25:24.077Z,46.80
2023-01-23T21:27:57.180Z,51.40
2023-01-23T21:30:36.192Z,50.50
2023-01-23T21:33:10.418Z,62.20
2023-01-23T21:35:50.875Z,58.00
2023-01-23T21:38:26.220Z,52.70
2023-01-23T21:40:59.237Z,81.30
2023-01-23T21:43:31.855Z,62.60
2023-01-23T21:46:04.918Z,54.80
2023-01-23T21:48:38.194Z,54.60
2023-01-23T21:51:12.656Z,52.40
2023-01-23T21:53:47.709Z,53.50
2023-01-23T21:56:25.079Z,56.40
2023-01-23T21:58:57.480Z,46.90
2023-01-23T22:01:42.685Z,54.30
2023-01-23T22:04:18.399Z,50.20
2023-01-23T22:06:55.650Z,51.40
2023-01-23T22:09:29.455Z,52.00
2023-01-23T22:12:02.724Z,56.00
2023-01-23T22:14:38.637Z,57.40
2023-01-23T22:17:14.246Z,58.20
2023-01-23T22:19:46.904Z,50.40
2023-01-23T22:22:20.331Z,50.70
2023-01-23T22:24:53.140Z,61.00
2023-01-23T22:27:25.635Z,79.30
2023-01-23T22:29:58.160Z,64.80
2023-01-23T22:32:33.500Z,65.00
2023-01-23T22:35:08.305Z,77.20
2023-01-23T22:37:44.418Z,62.40
2023-01-23T22:40:19.765Z,60.70
2023-01-23T22:42:53.036Z,59.20
2023-01-23T22:45:28.821Z,56.80
2023-01-23T22:48:01.338Z,61.30
2023-01-23T22:50:33.736Z,63.10
2023-01-23T22:53:07.227Z,56.60
2023-01-23T22:55:41.837Z,54.90
2023-01-23T22:58:16.620Z,50.70
2023-01-23T23:04:03.151Z,59.10
2023-01-23T23:06:35.681Z,74.70
2023-01-23T23:09:10.008Z,57.40
2023-01-23T23:11:44.155Z,58.00
2023-01-23T23:14:16.931Z,53.60
2023-01-23T23:16:49.484Z,79.00
2023-01-23T23:19:21.817Z,57.10
2023-01-23T23:21:54.258Z,62.90
2023-01-23T23:24:27.338Z,69.10
2023-01-23T23:26:59.881Z,61.30
2023-01-23T23:29:33.029Z,51.10
2023-01-23T23:32:05.602Z,61.10
2023-01-23T23:34:38.837Z,51.40
2023-01-23T23:37:11.391Z,62.30
2023-01-23T23:39:44.289Z,52.80
2023-01-23T23:42:16.690Z,60.00
2023-01-23T23:44:49.101Z,60.80
2023-01-23T23:47:25.144Z,52.40
2023-01-23T23:49:57.819Z,62.40
2023-01-23T23:52:30.242Z,67.20
2023-01-23T23:55:03.202Z,63.50
2023-01-23T23:57:35.836Z,59.00
